sensor_id;sensor_type;location;lat;lon;timestamp;P1;durP1;ratioP1;P2;durP2;ratioP2
3841;SDS011;1936;47.074;15.336;2023-07-13T00:01:39;3.17;;;1.63;;
3841;SDS011;1936;47.074;15.336;2023-07-13T00:03:43;2.67;;;1.20;;
3841;SDS011;1936;47.074;15.336;2023-07-13T00:05:46;2.20;;;1.30;;
3841;SDS011;1936;47.074;15.336;2023-07-13T00:07:52;4.50;;;1.80;;
3841;SDS011;1936;47.074;15.336;2023-07-13T00:09:54;2.03;;;1.27;;
3841;SDS011;1936;47.074;15.336;2023-07-13T00:11:57;1.80;;;1.23;;
3841;SDS011;1936;47.074;15.336;2023-07-13T00:14:01;2.17;;;1.10;;
3841;SDS011;1936;47.074;15.336;2023-07-13T00:16:08;3.37;;;1.33;;
3841;SDS011;1936;47.074;15.336;2023-07-13T00:18:13;2.77;;;1.70;;
3841;SDS011;1936;47.074;15.336;2023-07-13T00:20:17;4.50;;;1.30;;
3841;SDS011;1936;47.074;15.336;2023-07-13T00:22:22;3.17;;;1.20;;
3841;SDS011;1936;47.074;15.336;2023-07-13T00:24:27;1.63;;;1.07;;
3841;SDS011;1936;47.074;15.336;2023-07-13T00:26:31;1.53;;;1.43;;
3841;SDS011;1936;47.074;15.336;2023-07-13T00:28:35;2.67;;;1.27;;
3841;SDS011;1936;47.074;15.336;2023-07-13T00:30:40;4.70;;;1.27;;
3841;SDS011;1936;47.074;15.336;2023-07-13T00:32:44;3.33;;;1.17;;
3841;SDS011;1936;47.074;15.336;2023-07-13T00:34:47;3.57;;;1.43;;
3841;SDS011;1936;47.074;15.336;2023-07-13T00:36:51;2.10;;;1.30;;
3841;SDS011;1936;47.074;15.336;2023-07-13T00:38:54;1.43;;;0.93;;
3841;SDS011;1936;47.074;15.336;2023-07-13T00:40:58;2.87;;;1.27;;
3841;SDS011;1936;47.074;15.336;2023-07-13T00:43:02;2.13;;;1.50;;
3841;SDS011;1936;47.074;15.336;2023-07-13T00:47:46;1.03;;;0.93;;
3841;SDS011;1936;47.074;15.336;2023-07-13T00:49:49;1.63;;;1.20;;
3841;SDS011;1936;47.074;15.336;2023-07-13T00:51:53;3.07;;;1.43;;
3841;SDS011;1936;47.074;15.336;2023-07-13T00:54:03;1.77;;;1.37;;
3841;SDS011;1936;47.074;15.336;2023-07-13T00:56:10;1.73;;;1.43;;
3841;SDS011;1936;47.074;15.336;2023-07-13T00:58:14;1.53;;;1.23;;
3841;SDS011;1936;47.074;15.336;2023-07-13T01:00:27;2.40;;;1.40;;
3841;SDS011;1936;47.074;15.336;2023-07-13T01:02:32;3.47;;;1.47;;
3841;SDS011;1936;47.074;15.336;2023-07-13T01:04:38;2.73;;;1.40;;
3841;SDS011;1936;47.074;15.336;2023-07-13T01:06:45;4.37;;;2.13;;
3841;SDS011;1936;47.074;15.336;2023-07-13T01:08:49;3.63;;;1.87;;
3841;SDS011;1936;47.074;15.336;2023-07-13T01:10:53;3.53;;;1.50;;
3841;SDS011;1936;47.074;15.336;2023-07-13T01:12:57;4.83;;;2.47;;
3841;SDS011;1936;47.074;15.336;2023-07-13T01:15:01;6.03;;;2.23;;
3841;SDS011;1936;47.074;15.336;2023-07-13T01:17:07;3.37;;;3.07;;
3841;SDS011;1936;47.074;15.336;2023-07-13T01:19:19;2.90;;;2.13;;
3841;SDS011;1936;47.074;15.336;2023-07-13T01:21:32;2.30;;;1.90;;
3841;SDS011;1936;47.074;15.336;2023-07-13T01:23:36;2.37;;;2.17;;
3841;SDS011;1936;47.074;15.336;2023-07-13T01:25:39;3.33;;;2.27;;
3841;SDS011;1936;47.074;15.336;2023-07-13T01:27:43;1.93;;;1.47;;
3841;SDS011;1936;47.074;15.336;2023-07-13T01:29:47;4.27;;;2.00;;
3841;SDS011;1936;47.074;15.336;2023-07-13T01:31:51;4.87;;;2.67;;
3841;SDS011;1936;47.074;15.336;2023-07-13T01:33:53;2.67;;;1.90;;
3841;SDS011;1936;47.074;15.336;2023-07-13T01:35:59;5.40;;;2.67;;
3841;SDS011;1936;47.074;15.336;2023-07-13T01:38:05;5.23;;;2.90;;
3841;SDS011;1936;47.074;15.336;2023-07-13T01:40:10;6.33;;;2.70;;
3841;SDS011;1936;47.074;15.336;2023-07-13T01:42:13;2.57;;;2.37;;
3841;SDS011;1936;47.074;15.336;2023-07-13T01:44:17;2.83;;;2.30;;
3841;SDS011;1936;47.074;15.336;2023-07-13T01:46:21;2.53;;;2.30;;
3841;SDS011;1936;47.074;15.336;2023-07-13T01:48:24;4.33;;;2.53;;
3841;SDS011;1936;47.074;15.336;2023-07-13T01:50:28;2.27;;;1.70;;
3841;SDS011;1936;47.074;15.336;2023-07-13T01:52:32;3.40;;;1.67;;
3841;SDS011;1936;47.074;15.336;2023-07-13T01:54:36;3.30;;;2.03;;
3841;SDS011;1936;47.074;15.336;2023-07-13T01:56:40;7.70;;;2.13;;
3841;SDS011;1936;47.074;15.336;2023-07-13T01:58:44;3.33;;;3.03;;
3841;SDS011;1936;47.074;15.336;2023-07-13T02:00:48;10.20;;;2.60;;
3841;SDS011;1936;47.074;15.336;2023-07-13T02:02:52;4.70;;;2.30;;
3841;SDS011;1936;47.074;15.336;2023-07-13T02:04:55;8.43;;;3.03;;
3841;SDS011;1936;47.074;15.336;2023-07-13T02:06:59;6.37;;;2.30;;
3841;SDS011;1936;47.074;15.336;2023-07-13T02:09:02;4.10;;;2.23;;
3841;SDS011;1936;47.074;15.336;2023-07-13T02:11:07;1.70;;;1.10;;
3841;SDS011;1936;47.074;15.336;2023-07-13T02:13:11;4.20;;;1.63;;
3841;SDS011;1936;47.074;15.336;2023-07-13T02:15:15;7.13;;;2.40;;
3841;SDS011;1936;47.074;15.336;2023-07-13T02:17:20;1.70;;;1.40;;
3841;SDS011;1936;47.074;15.336;2023-07-13T02:19:23;2.50;;;1.80;;
3841;SDS011;1936;47.074;15.336;2023-07-13T02:21:27;3.00;;;1.70;;
3841;SDS011;1936;47.074;15.336;2023-07-13T02:23:31;3.30;;;1.50;;
3841;SDS011;1936;47.074;15.336;2023-07-13T02:25:35;4.77;;;2.57;;
3841;SDS011;1936;47.074;15.336;2023-07-13T02:27:40;6.30;;;2.53;;
3841;SDS011;1936;47.074;15.336;2023-07-13T02:29:43;4.17;;;1.83;;
3841;SDS011;1936;47.074;15.336;2023-07-13T02:31:45;2.70;;;2.10;;
3841;SDS011;1936;47.074;15.336;2023-07-13T02:33:49;7.73;;;2.50;;
3841;SDS011;1936;47.074;15.336;2023-07-13T02:35:53;4.87;;;2.13;;
3841;SDS011;1936;47.074;15.336;2023-07-13T02:37:57;8.83;;;2.90;;
3841;SDS011;1936;47.074;15.336;2023-07-13T02:40:01;4.00;;;1.90;;
3841;SDS011;1936;47.074;15.336;2023-07-13T02:42:09;3.53;;;2.40;;
3841;SDS011;1936;47.074;15.336;2023-07-13T02:44:14;4.03;;;2.20;;
3841;SDS011;1936;47.074;15.336;2023-07-13T02:46:18;6.07;;;2.73;;
3841;SDS011;1936;47.074;15.336;2023-07-13T02:48:21;2.77;;;1.40;;
3841;SDS011;1936;47.074;15.336;2023-07-13T02:50:24;4.13;;;2.13;;
3841;SDS011;1936;47.074;15.336;2023-07-13T02:52:28;2.90;;;1.93;;
3841;SDS011;1936;47.074;15.336;2023-07-13T02:54:32;3.97;;;3.03;;
3841;SDS011;1936;47.074;15.336;2023-07-13T02:56:35;4.03;;;2.03;;
3841;SDS011;1936;47.074;15.336;2023-07-13T02:58:40;2.60;;;2.40;;
3841;SDS011;1936;47.074;15.336;2023-07-13T03:00:46;6.40;;;2.20;;
3841;SDS011;1936;47.074;15.336;2023-07-13T03:02:51;2.23;;;2.00;;
3841;SDS011;1936;47.074;15.336;2023-07-13T03:04:58;2.63;;;2.43;;
3841;SDS011;1936;47.074;15.336;2023-07-13T03:07:02;3.20;;;2.43;;
3841;SDS011;1936;47.074;15.336;2023-07-13T03:09:06;2.13;;;1.93;;
3841;SDS011;1936;47.074;15.336;2023-07-13T03:11:15;7.53;;;2.40;;
3841;SDS011;1936;47.074;15.336;2023-07-13T03:13:21;4.40;;;3.80;;
3841;SDS011;1936;47.074;15.336;2023-07-13T03:15:25;5.37;;;4.17;;
3841;SDS011;1936;47.074;15.336;2023-07-13T03:17:30;8.43;;;2.80;;
3841;SDS011;1936;47.074;15.336;2023-07-13T03:19:33;6.10;;;2.97;;
3841;SDS011;1936;47.074;15.336;2023-07-13T03:21:37;3.50;;;2.63;;
3841;SDS011;1936;47.074;15.336;2023-07-13T03:23:43;4.10;;;2.80;;
3841;SDS011;1936;47.074;15.336;2023-07-13T03:25:47;4.80;;;3.33;;
3841;SDS011;1936;47.074;15.336;2023-07-13T03:27:52;4.40;;;2.77;;
3841;SDS011;1936;47.074;15.336;2023-07-13T03:29:55;5.13;;;2.60;;
3841;SDS011;1936;47.074;15.336;2023-07-13T03:31:58;3.67;;;2.93;;
3841;SDS011;1936;47.074;15.336;2023-07-13T03:34:04;7.30;;;3.80;;
3841;SDS011;1936;47.074;15.336;2023-07-13T03:36:10;5.40;;;3.80;;
3841;SDS011;1936;47.074;15.336;2023-07-13T03:38:16;8.53;;;3.37;;
3841;SDS011;1936;47.074;15.336;2023-07-13T03:40:19;5.90;;;3.87;;
3841;SDS011;1936;47.074;15.336;2023-07-13T03:42:23;4.67;;;4.23;;
3841;SDS011;1936;47.074;15.336;2023-07-13T03:44:27;6.17;;;3.33;;
3841;SDS011;1936;47.074;15.336;2023-07-13T03:46:31;4.17;;;2.50;;
3841;SDS011;1936;47.074;15.336;2023-07-13T03:48:35;4.97;;;3.50;;
3841;SDS011;1936;47.074;15.336;2023-07-13T03:50:43;3.77;;;2.90;;
3841;SDS011;1936;47.074;15.336;2023-07-13T03:52:46;3.50;;;2.60;;
3841;SDS011;1936;47.074;15.336;2023-07-13T03:54:50;3.10;;;2.33;;
3841;SDS011;1936;47.074;15.336;2023-07-13T03:56:53;3.37;;;2.50;;
3841;SDS011;1936;47.074;15.336;2023-07-13T03:58:57;3.90;;;3.00;;
3841;SDS011;1936;47.074;15.336;2023-07-13T04:01:02;5.10;;;3.20;;
3841;SDS011;1936;47.074;15.336;2023-07-13T04:03:06;5.90;;;2.37;;
3841;SDS011;1936;47.074;15.336;2023-07-13T04:05:10;3.93;;;2.50;;
3841;SDS011;1936;47.074;15.336;2023-07-13T04:07:15;3.60;;;3.30;;
3841;SDS011;1936;47.074;15.336;2023-07-13T04:09:18;3.77;;;2.73;;
3841;SDS011;1936;47.074;15.336;2023-07-13T04:11:23;3.60;;;2.33;;
3841;SDS011;1936;47.074;15.336;2023-07-13T04:13:28;7.23;;;3.20;;
3841;SDS011;1936;47.074;15.336;2023-07-13T04:15:31;2.83;;;2.50;;
3841;SDS011;1936;47.074;15.336;2023-07-13T04:17:35;3.40;;;2.77;;
3841;SDS011;1936;47.074;15.336;2023-07-13T04:19:39;7.70;;;2.77;;
3841;SDS011;1936;47.074;15.336;2023-07-13T04:21:43;4.70;;;2.90;;
3841;SDS011;1936;47.074;15.336;2023-07-13T04:23:48;5.77;;;3.00;;
3841;SDS011;1936;47.074;15.336;2023-07-13T04:25:52;4.97;;;2.97;;
3841;SDS011;1936;47.074;15.336;2023-07-13T04:27:56;4.13;;;2.87;;
3841;SDS011;1936;47.074;15.336;2023-07-13T04:30:00;3.67;;;3.00;;
3841;SDS011;1936;47.074;15.336;2023-07-13T04:32:04;4.13;;;2.70;;
3841;SDS011;1936;47.074;15.336;2023-07-13T04:34:08;2.60;;;2.40;;
3841;SDS011;1936;47.074;15.336;2023-07-13T04:36:11;3.43;;;2.60;;
3841;SDS011;1936;47.074;15.336;2023-07-13T04:38:15;4.03;;;2.47;;
3841;SDS011;1936;47.074;15.336;2023-07-13T04:40:21;3.00;;;2.10;;
3841;SDS011;1936;47.074;15.336;2023-07-13T04:42:24;2.57;;;2.00;;
3841;SDS011;1936;47.074;15.336;2023-07-13T04:44:28;2.03;;;1.73;;
3841;SDS011;1936;47.074;15.336;2023-07-13T04:46:31;7.60;;;2.30;;
3841;SDS011;1936;47.074;15.336;2023-07-13T04:48:35;2.80;;;2.47;;
3841;SDS011;1936;47.074;15.336;2023-07-13T04:50:39;2.67;;;1.80;;
3841;SDS011;1936;47.074;15.336;2023-07-13T04:52:42;3.90;;;2.70;;
3841;SDS011;1936;47.074;15.336;2023-07-13T04:54:46;3.70;;;2.40;;
3841;SDS011;1936;47.074;15.336;2023-07-13T04:56:51;10.67;;;2.80;;
3841;SDS011;1936;47.074;15.336;2023-07-13T04:58:54;3.57;;;2.80;;
3841;SDS011;1936;47.074;15.336;2023-07-13T05:01:00;3.33;;;2.33;;
3841;SDS011;1936;47.074;15.336;2023-07-13T05:03:04;4.30;;;2.50;;
3841;SDS011;1936;47.074;15.336;2023-07-13T05:05:08;3.43;;;1.90;;
3841;SDS011;1936;47.074;15.336;2023-07-13T05:07:12;7.30;;;1.93;;
3841;SDS011;1936;47.074;15.336;2023-07-13T05:09:15;2.53;;;1.83;;
3841;SDS011;1936;47.074;15.336;2023-07-13T05:11:18;4.10;;;2.10;;
3841;SDS011;1936;47.074;15.336;2023-07-13T05:13:23;5.40;;;2.50;;
3841;SDS011;1936;47.074;15.336;2023-07-13T05:15:30;3.50;;;2.50;;
3841;SDS011;1936;47.074;15.336;2023-07-13T05:17:35;2.30;;;2.20;;
3841;SDS011;1936;47.074;15.336;2023-07-13T05:19:40;2.80;;;1.97;;
3841;SDS011;1936;47.074;15.336;2023-07-13T05:21:43;3.40;;;1.73;;
3841;SDS011;1936;47.074;15.336;2023-07-13T05:23:47;2.40;;;1.63;;
3841;SDS011;1936;47.074;15.336;2023-07-13T05:25:50;5.13;;;2.00;;
3841;SDS011;1936;47.074;15.336;2023-07-13T05:27:53;2.90;;;1.83;;
3841;SDS011;1936;47.074;15.336;2023-07-13T05:29:58;2.80;;;1.60;;
3841;SDS011;1936;47.074;15.336;2023-07-13T05:32:02;2.93;;;1.60;;
3841;SDS011;1936;47.074;15.336;2023-07-13T05:34:06;4.30;;;2.40;;
3841;SDS011;1936;47.074;15.336;2023-07-13T05:36:10;3.70;;;1.63;;
3841;SDS011;1936;47.074;15.336;2023-07-13T05:38:13;2.53;;;2.33;;
3841;SDS011;1936;47.074;15.336;2023-07-13T05:40:17;2.27;;;1.80;;
3841;SDS011;1936;47.074;15.336;2023-07-13T05:42:21;2.10;;;1.80;;
3841;SDS011;1936;47.074;15.336;2023-07-13T05:44:24;5.27;;;1.97;;
3841;SDS011;1936;47.074;15.336;2023-07-13T05:46:29;2.80;;;2.23;;
3841;SDS011;1936;47.074;15.336;2023-07-13T05:48:33;2.60;;;1.70;;
3841;SDS011;1936;47.074;15.336;2023-07-13T05:50:36;7.23;;;1.70;;
3841;SDS011;1936;47.074;15.336;2023-07-13T05:52:40;3.57;;;2.60;;
3841;SDS011;1936;47.074;15.336;2023-07-13T05:54:43;2.53;;;1.57;;
3841;SDS011;1936;47.074;15.336;2023-07-13T05:56:47;2.50;;;1.80;;
3841;SDS011;1936;47.074;15.336;2023-07-13T05:58:50;2.40;;;2.00;;
3841;SDS011;1936;47.074;15.336;2023-07-13T06:00:58;1.80;;;1.30;;
3841;SDS011;1936;47.074;15.336;2023-07-13T06:03:04;3.90;;;1.50;;
3841;SDS011;1936;47.074;15.336;2023-07-13T06:05:09;3.10;;;1.87;;
3841;SDS011;1936;47.074;15.336;2023-07-13T06:07:12;6.20;;;2.07;;
3841;SDS011;1936;47.074;15.336;2023-07-13T06:09:15;1.70;;;1.60;;
3841;SDS011;1936;47.074;15.336;2023-07-13T06:11:20;2.30;;;2.10;;
3841;SDS011;1936;47.074;15.336;2023-07-13T06:13:25;2.20;;;2.00;;
3841;SDS011;1936;47.074;15.336;2023-07-13T06:15:28;1.53;;;1.37;;
3841;SDS011;1936;47.074;15.336;2023-07-13T06:17:31;2.30;;;1.73;;
3841;SDS011;1936;47.074;15.336;2023-07-13T06:19:37;2.47;;;1.57;;
3841;SDS011;1936;47.074;15.336;2023-07-13T06:21:40;2.10;;;1.10;;
3841;SDS011;1936;47.074;15.336;2023-07-13T06:23:44;3.17;;;1.57;;
3841;SDS011;1936;47.074;15.336;2023-07-13T06:25:49;2.10;;;2.00;;
3841;SDS011;1936;47.074;15.336;2023-07-13T06:27:52;4.03;;;1.77;;
3841;SDS011;1936;47.074;15.336;2023-07-13T06:29:56;4.83;;;1.40;;
3841;SDS011;1936;47.074;15.336;2023-07-13T06:31:59;1.87;;;1.50;;
3841;SDS011;1936;47.074;15.336;2023-07-13T06:34:03;2.63;;;1.10;;
3841;SDS011;1936;47.074;15.336;2023-07-13T06:36:08;2.40;;;1.23;;
3841;SDS011;1936;47.074;15.336;2023-07-13T06:38:11;2.60;;;1.33;;
3841;SDS011;1936;47.074;15.336;2023-07-13T06:40:15;1.63;;;1.10;;
3841;SDS011;1936;47.074;15.336;2023-07-13T06:42:18;2.77;;;2.07;;
3841;SDS011;1936;47.074;15.336;2023-07-13T06:44:22;1.10;;;0.97;;
3841;SDS011;1936;47.074;15.336;2023-07-13T06:46:25;1.43;;;1.13;;
3841;SDS011;1936;47.074;15.336;2023-07-13T06:48:31;1.43;;;1.33;;
3841;SDS011;1936;47.074;15.336;2023-07-13T06:50:33;1.87;;;1.20;;
3841;SDS011;1936;47.074;15.336;2023-07-13T06:52:38;3.13;;;1.37;;
3841;SDS011;1936;47.074;15.336;2023-07-13T06:54:42;2.40;;;1.57;;
3841;SDS011;1936;47.074;15.336;2023-07-13T06:56:45;2.20;;;1.10;;
3841;SDS011;1936;47.074;15.336;2023-07-13T06:58:50;7.10;;;1.37;;
3841;SDS011;1936;47.074;15.336;2023-07-13T07:00:53;2.93;;;1.80;;
3841;SDS011;1936;47.074;15.336;2023-07-13T07:02:57;2.30;;;1.40;;
3841;SDS011;1936;47.074;15.336;2023-07-13T07:05:00;1.90;;;1.30;;
3841;SDS011;1936;47.074;15.336;2023-07-13T07:07:04;1.93;;;1.50;;
3841;SDS011;1936;47.074;15.336;2023-07-13T07:09:09;2.87;;;1.27;;
3841;SDS011;1936;47.074;15.336;2023-07-13T07:11:13;2.13;;;1.50;;
3841;SDS011;1936;47.074;15.336;2023-07-13T07:13:19;1.30;;;1.20;;
3841;SDS011;1936;47.074;15.336;2023-07-13T07:15:22;3.90;;;1.40;;
3841;SDS011;1936;47.074;15.336;2023-07-13T07:17:25;4.20;;;1.37;;
3841;SDS011;1936;47.074;15.336;2023-07-13T07:19:29;2.20;;;1.43;;
3841;SDS011;1936;47.074;15.336;2023-07-13T07:21:33;4.00;;;1.67;;
3841;SDS011;1936;47.074;15.336;2023-07-13T07:23:37;2.80;;;1.60;;
3841;SDS011;1936;47.074;15.336;2023-07-13T07:25:44;4.87;;;1.80;;
3841;SDS011;1936;47.074;15.336;2023-07-13T07:27:48;1.87;;;0.90;;
3841;SDS011;1936;47.074;15.336;2023-07-13T07:29:54;1.60;;;1.20;;
3841;SDS011;1936;47.074;15.336;2023-07-13T07:32:01;2.73;;;1.13;;
3841;SDS011;1936;47.074;15.336;2023-07-13T07:34:25;1.27;;;1.00;;
3841;SDS011;1936;47.074;15.336;2023-07-13T07:36:29;1.93;;;1.47;;
3841;SDS011;1936;47.074;15.336;2023-07-13T07:38:35;2.10;;;1.20;;
3841;SDS011;1936;47.074;15.336;2023-07-13T07:40:39;2.73;;;0.80;;
3841;SDS011;1936;47.074;15.336;2023-07-13T07:42:47;1.20;;;0.87;;
3841;SDS011;1936;47.074;15.336;2023-07-13T07:44:51;3.93;;;1.10;;
3841;SDS011;1936;47.074;15.336;2023-07-13T07:46:54;2.17;;;0.90;;
3841;SDS011;1936;47.074;15.336;2023-07-13T07:48:58;2.30;;;1.20;;
3841;SDS011;1936;47.074;15.336;2023-07-13T07:51:01;1.50;;;0.90;;
3841;SDS011;1936;47.074;15.336;2023-07-13T07:53:05;2.83;;;1.33;;
3841;SDS011;1936;47.074;15.336;2023-07-13T07:55:12;2.03;;;0.90;;
3841;SDS011;1936;47.074;15.336;2023-07-13T07:57:18;1.83;;;1.00;;
3841;SDS011;1936;47.074;15.336;2023-07-13T07:59:26;1.20;;;1.10;;
3841;SDS011;1936;47.074;15.336;2023-07-13T08:01:32;4.40;;;1.00;;
3841;SDS011;1936;47.074;15.336;2023-07-13T08:03:38;1.53;;;0.70;;
3841;SDS011;1936;47.074;15.336;2023-07-13T08:05:44;3.67;;;1.10;;
3841;SDS011;1936;47.074;15.336;2023-07-13T08:08:08;2.60;;;1.03;;
3841;SDS011;1936;47.074;15.336;2023-07-13T08:10:12;1.93;;;0.97;;
3841;SDS011;1936;47.074;15.336;2023-07-13T08:12:16;3.87;;;1.10;;
3841;SDS011;1936;47.074;15.336;2023-07-13T08:14:41;2.53;;;1.53;;
3841;SDS011;1936;47.074;15.336;2023-07-13T08:16:53;1.93;;;0.87;;
3841;SDS011;1936;47.074;15.336;2023-07-13T08:18:56;3.47;;;0.77;;
3841;SDS011;1936;47.074;15.336;2023-07-13T08:21:03;1.10;;;0.80;;
3841;SDS011;1936;47.074;15.336;2023-07-13T08:23:09;1.93;;;0.93;;
3841;SDS011;1936;47.074;15.336;2023-07-13T08:25:14;1.60;;;0.80;;
3841;SDS011;1936;47.074;15.336;2023-07-13T08:27:17;0.60;;;0.50;;
3841;SDS011;1936;47.074;15.336;2023-07-13T08:29:21;2.10;;;0.67;;
3841;SDS011;1936;47.074;15.336;2023-07-13T08:31:25;2.67;;;1.00;;
3841;SDS011;1936;47.074;15.336;2023-07-13T08:33:29;0.70;;;0.60;;
3841;SDS011;1936;47.074;15.336;2023-07-13T08:35:35;3.30;;;0.70;;
3841;SDS011;1936;47.074;15.336;2023-07-13T08:37:38;0.83;;;0.70;;
3841;SDS011;1936;47.074;15.336;2023-07-13T08:39:41;1.87;;;0.83;;
3841;SDS011;1936;47.074;15.336;2023-07-13T08:41:45;0.80;;;0.50;;
3841;SDS011;1936;47.074;15.336;2023-07-13T08:43:51;1.47;;;0.90;;
3841;SDS011;1936;47.074;15.336;2023-07-13T08:45:59;1.37;;;0.47;;
3841;SDS011;1936;47.074;15.336;2023-07-13T08:48:10;3.93;;;0.80;;
3841;SDS011;1936;47.074;15.336;2023-07-13T08:50:17;1.20;;;0.93;;
3841;SDS011;1936;47.074;15.336;2023-07-13T08:52:28;6.83;;;0.80;;
3841;SDS011;1936;47.074;15.336;2023-07-13T08:54:36;1.73;;;0.60;;
3841;SDS011;1936;47.074;15.336;2023-07-13T08:56:42;0.70;;;0.70;;
3841;SDS011;1936;47.074;15.336;2023-07-13T08:58:48;0.90;;;0.60;;
3841;SDS011;1936;47.074;15.336;2023-07-13T09:00:58;0.87;;;0.80;;
3841;SDS011;1936;47.074;15.336;2023-07-13T09:03:06;0.90;;;0.63;;
3841;SDS011;1936;47.074;15.336;2023-07-13T09:05:24;2.00;;;0.63;;
3841;SDS011;1936;47.074;15.336;2023-07-13T09:07:34;1.00;;;0.83;;
3841;SDS011;1936;47.074;15.336;2023-07-13T09:09:47;0.60;;;0.50;;
3841;SDS011;1936;47.074;15.336;2023-07-13T09:11:59;0.70;;;0.70;;
3841;SDS011;1936;47.074;15.336;2023-07-13T09:14:22;1.53;;;0.90;;
3841;SDS011;1936;47.074;15.336;2023-07-13T09:16:37;1.47;;;0.70;;
3841;SDS011;1936;47.074;15.336;2023-07-13T09:18:44;1.13;;;0.70;;
3841;SDS011;1936;47.074;15.336;2023-07-13T09:20:51;0.70;;;0.63;;
3841;SDS011;1936;47.074;15.336;2023-07-13T09:22:59;2.50;;;0.60;;
3841;SDS011;1936;47.074;15.336;2023-07-13T09:25:23;0.70;;;0.67;;
3841;SDS011;1936;47.074;15.336;2023-07-13T09:27:30;1.53;;;0.70;;
3841;SDS011;1936;47.074;15.336;2023-07-13T09:29:36;1.10;;;0.63;;
3841;SDS011;1936;47.074;15.336;2023-07-13T09:31:45;1.00;;;0.90;;
3841;SDS011;1936;47.074;15.336;2023-07-13T09:33:56;0.90;;;0.73;;
3841;SDS011;1936;47.074;15.336;2023-07-13T09:36:00;0.80;;;0.80;;
3841;SDS011;1936;47.074;15.336;2023-07-13T09:38:10;1.13;;;0.90;;
3841;SDS011;1936;47.074;15.336;2023-07-13T09:40:17;1.07;;;0.97;;
3841;SDS011;1936;47.074;15.336;2023-07-13T09:42:42;1.13;;;0.80;;
3841;SDS011;1936;47.074;15.336;2023-07-13T09:44:51;0.83;;;0.83;;
3841;SDS011;1936;47.074;15.336;2023-07-13T09:46:56;0.90;;;0.70;;
3841;SDS011;1936;47.074;15.336;2023-07-13T09:49:02;2.00;;;1.10;;
3841;SDS011;1936;47.074;15.336;2023-07-13T09:51:13;1.00;;;0.90;;
3841;SDS011;1936;47.074;15.336;2023-07-13T09:53:18;1.30;;;1.20;;
3841;SDS011;1936;47.074;15.336;2023-07-13T09:55:25;2.50;;;0.80;;
3841;SDS011;1936;47.074;15.336;2023-07-13T09:57:30;1.43;;;1.00;;
3841;SDS011;1936;47.074;15.336;2023-07-13T09:59:52;1.17;;;0.87;;
3841;SDS011;1936;47.074;15.336;2023-07-13T10:01:58;1.77;;;0.83;;
3841;SDS011;1936;47.074;15.336;2023-07-13T10:04:03;1.20;;;0.83;;
3841;SDS011;1936;47.074;15.336;2023-07-13T10:06:16;1.20;;;1.00;;
3841;SDS011;1936;47.074;15.336;2023-07-13T10:08:24;1.10;;;0.97;;
3841;SDS011;1936;47.074;15.336;2023-07-13T10:10:29;1.27;;;1.00;;
3841;SDS011;1936;47.074;15.336;2023-07-13T10:12:35;2.00;;;0.70;;
3841;SDS011;1936;47.074;15.336;2023-07-13T10:14:41;1.27;;;1.00;;
3841;SDS011;1936;47.074;15.336;2023-07-13T10:16:45;0.90;;;0.80;;
3841;SDS011;1936;47.074;15.336;2023-07-13T10:18:51;1.30;;;0.80;;
3841;SDS011;1936;47.074;15.336;2023-07-13T10:21:00;0.80;;;0.70;;
3841;SDS011;1936;47.074;15.336;2023-07-13T10:23:35;2.23;;;1.10;;
3841;SDS011;1936;47.074;15.336;2023-07-13T10:25:39;1.90;;;1.00;;
3841;SDS011;1936;47.074;15.336;2023-07-13T10:27:46;1.43;;;0.63;;
3841;SDS011;1936;47.074;15.336;2023-07-13T10:29:52;0.80;;;0.60;;
3841;SDS011;1936;47.074;15.336;2023-07-13T10:31:59;1.30;;;1.20;;
3841;SDS011;1936;47.074;15.336;2023-07-13T10:34:03;1.03;;;0.90;;
3841;SDS011;1936;47.074;15.336;2023-07-13T10:36:13;1.27;;;0.80;;
3841;SDS011;1936;47.074;15.336;2023-07-13T10:38:23;1.13;;;1.03;;
3841;SDS011;1936;47.074;15.336;2023-07-13T10:40:30;1.10;;;0.97;;
3841;SDS011;1936;47.074;15.336;2023-07-13T10:42:39;1.03;;;0.80;;
3841;SDS011;1936;47.074;15.336;2023-07-13T10:44:43;1.37;;;0.87;;
3841;SDS011;1936;47.074;15.336;2023-07-13T10:46:48;0.80;;;0.70;;
3841;SDS011;1936;47.074;15.336;2023-07-13T10:48:53;1.03;;;0.60;;
3841;SDS011;1936;47.074;15.336;2023-07-13T10:50:59;2.30;;;1.00;;
3841;SDS011;1936;47.074;15.336;2023-07-13T10:53:17;1.27;;;1.10;;
3841;SDS011;1936;47.074;15.336;2023-07-13T10:55:34;1.87;;;0.90;;
3841;SDS011;1936;47.074;15.336;2023-07-13T10:57:42;1.97;;;1.30;;
3841;SDS011;1936;47.074;15.336;2023-07-13T10:59:46;1.30;;;0.80;;
3841;SDS011;1936;47.074;15.336;2023-07-13T11:01:54;1.60;;;1.20;;
3841;SDS011;1936;47.074;15.336;2023-07-13T11:04:00;1.03;;;0.93;;
3841;SDS011;1936;47.074;15.336;2023-07-13T11:06:08;1.93;;;0.97;;
3841;SDS011;1936;47.074;15.336;2023-07-13T11:08:18;2.20;;;1.00;;
3841;SDS011;1936;47.074;15.336;2023-07-13T11:10:46;1.20;;;0.80;;
3841;SDS011;1936;47.074;15.336;2023-07-13T11:12:52;1.23;;;1.03;;
3841;SDS011;1936;47.074;15.336;2023-07-13T11:15:09;1.00;;;0.90;;
3841;SDS011;1936;47.074;15.336;2023-07-13T11:17:24;1.10;;;0.83;;
3841;SDS011;1936;47.074;15.336;2023-07-13T11:19:40;1.70;;;1.10;;
3841;SDS011;1936;47.074;15.336;2023-07-13T11:24:13;0.77;;;0.70;;
3841;SDS011;1936;47.074;15.336;2023-07-13T11:28:44;1.10;;;1.00;;
3841;SDS011;1936;47.074;15.336;2023-07-13T11:31:03;1.03;;;0.83;;
3841;SDS011;1936;47.074;15.336;2023-07-13T11:33:19;3.70;;;1.17;;
3841;SDS011;1936;47.074;15.336;2023-07-13T11:35:25;1.13;;;1.03;;
3841;SDS011;1936;47.074;15.336;2023-07-13T11:37:29;1.33;;;1.00;;
3841;SDS011;1936;47.074;15.336;2023-07-13T11:39:35;2.13;;;1.20;;
3841;SDS011;1936;47.074;15.336;2023-07-13T11:41:49;1.57;;;1.07;;
3841;SDS011;1936;47.074;15.336;2023-07-13T11:44:02;1.30;;;1.20;;
3841;SDS011;1936;47.074;15.336;2023-07-13T11:46:13;1.10;;;0.80;;
3841;SDS011;1936;47.074;15.336;2023-07-13T11:48:19;1.30;;;1.07;;
3841;SDS011;1936;47.074;15.336;2023-07-13T11:50:24;2.40;;;0.97;;
3841;SDS011;1936;47.074;15.336;2023-07-13T11:52:29;2.00;;;1.00;;
3841;SDS011;1936;47.074;15.336;2023-07-13T11:54:43;2.67;;;1.33;;
3841;SDS011;1936;47.074;15.336;2023-07-13T11:56:52;2.10;;;1.50;;
3841;SDS011;1936;47.074;15.336;2023-07-13T11:58:56;2.03;;;1.27;;
3841;SDS011;1936;47.074;15.336;2023-07-13T12:01:01;2.83;;;1.00;;
3841;SDS011;1936;47.074;15.336;2023-07-13T12:03:06;1.90;;;1.27;;
3841;SDS011;1936;47.074;15.336;2023-07-13T12:05:11;3.03;;;1.50;;
3841;SDS011;1936;47.074;15.336;2023-07-13T12:07:17;2.57;;;1.33;;
3841;SDS011;1936;47.074;15.336;2023-07-13T12:09:22;1.63;;;1.23;;
3841;SDS011;1936;47.074;15.336;2023-07-13T12:11:28;1.40;;;1.10;;
3841;SDS011;1936;47.074;15.336;2023-07-13T12:13:36;3.53;;;1.40;;
3841;SDS011;1936;47.074;15.336;2023-07-13T12:15:41;2.10;;;1.50;;
3841;SDS011;1936;47.074;15.336;2023-07-13T12:17:48;1.30;;;1.20;;
3841;SDS011;1936;47.074;15.336;2023-07-13T12:19:52;1.70;;;1.50;;
3841;SDS011;1936;47.074;15.336;2023-07-13T12:21:57;6.80;;;1.37;;
3841;SDS011;1936;47.074;15.336;2023-07-13T12:24:01;2.60;;;2.00;;
3841;SDS011;1936;47.074;15.336;2023-07-13T12:26:06;2.20;;;1.20;;
3841;SDS011;1936;47.074;15.336;2023-07-13T12:28:22;4.60;;;1.23;;
3841;SDS011;1936;47.074;15.336;2023-07-13T12:30:33;3.60;;;1.77;;
3841;SDS011;1936;47.074;15.336;2023-07-13T12:32:37;2.40;;;1.20;;
3841;SDS011;1936;47.074;15.336;2023-07-13T12:34:50;2.40;;;1.47;;
3841;SDS011;1936;47.074;15.336;2023-07-13T12:36:55;3.97;;;1.60;;
3841;SDS011;1936;47.074;15.336;2023-07-13T12:39:04;2.73;;;1.53;;
3841;SDS011;1936;47.074;15.336;2023-07-13T12:41:15;1.60;;;1.10;;
3841;SDS011;1936;47.074;15.336;2023-07-13T12:43:22;3.90;;;1.33;;
3841;SDS011;1936;47.074;15.336;2023-07-13T12:45:26;2.20;;;1.80;;
3841;SDS011;1936;47.074;15.336;2023-07-13T12:47:32;3.17;;;1.43;;
3841;SDS011;1936;47.074;15.336;2023-07-13T12:49:47;2.70;;;1.30;;
3841;SDS011;1936;47.074;15.336;2023-07-13T12:51:55;1.53;;;1.37;;
3841;SDS011;1936;47.074;15.336;2023-07-13T12:54:07;2.53;;;1.57;;
3841;SDS011;1936;47.074;15.336;2023-07-13T12:56:19;2.67;;;1.70;;
3841;SDS011;1936;47.074;15.336;2023-07-13T12:58:28;1.63;;;1.10;;